KCNU

Chanute Martin Johnson Airport

Chanute, Kansas, USA
METAR KCNU 151552Z AUTO 01008KT 10SM CLR 04/M06 A3022 RMK AO2 SLP239 T00391061 $
Observed Flight Rules
Dec-15 @ 15:52 UTC (12 minutes ago) Visual Flight Rules
Wind Visibility Clouds
10° at 8 knots 10 miles
  • Clear skies
Temperatures Readings
Current 4°C / 39°F
Dewpoint -6°C / 21°F
Humidity 48%
Altimeter 30.22" Hg
Pressure 1023.9 hPa
Elevation 297
METAR KCNU 151552Z AUTO 01008KT 10SM CLR 04/M06 A3022 RMK AO2 SLP239 T00391061 $
Observed Flight Rules
Dec-15 @ 15:52 UTC
(12 minutes ago)
VFR
Wind Visibility
10° at 8 knots 10 miles
Clouds
  • Clear skies
Temperature Dewpoint
4°C / 39°F -6°C / 21°F
Humidity Altimeter Pressure
48% 30.22" Hg 1023.9 hPa